Terminal Aerodrome Forecast
Issued by NWS

Home | Current Version | Previous Version | Text Only | Print | Product List | Glossary On
Versions: 1 2 3 4 5 6 7 8 9 10 11 12 13 14 15
000
FTUS42 KGSP 212328
TAFAND
TAF
KAND 212328Z 2200/2224 08006KT P6SM VCSH OVC050
     FM220200 08007KT P6SM VCSH OVC025
      TEMPO 2206/2208 2SM -SHRA OVC007
     FM220800 07006KT 5SM -SHRA BR OVC008
     FM221000 07006KT 3SM -SHRA BR OVC003
     FM221400 07006KT 4SM BR VCSH OVC008 PROB30 2214/2218 2SM -SHRA
      OVC003
     FM221800 07006KT P6SM OVC015
     FM222300 05005KT P6SM VCSH OVC020=

USA.gov is the U.S. government's official web portal to all federal, state and local government web resources and services.